Time;durP1;ratioP1;P1;durP2;ratioP2;P2;SDS_P1;SDS_P2;PMS_P1;PMS_P2;Temp;Humidity;BMP_temperature;BMP_pressure;BME280_temperature;BME280_humidity;BME280_pressure;Samples;Min_cycle;Max_cycle;Signal;HPM_P1;HPM_P2
2022/08/09 00:02:31;;;;;;;2.45;1.25;;;20.80;99.90;;;;;;5009553;28;20046;-76
2022/08/09 00:04:59;;;;;;;2.08;1.00;;;20.70;99.90;;;;;;5011101;28;20052;-76
2022/08/09 00:07:46;;;;;;;2.75;1.10;;;20.70;99.90;;;;;;5010891;28;20050;-75
2022/08/09 00:10:13;;;;;;;2.55;1.20;;;20.60;99.90;;;;;;5011017;28;20150;-75
2022/08/09 00:12:47;;;;;;;2.38;1.20;;;20.30;99.90;;;;;;5011126;28;20046;-75
2022/08/09 00:15:22;;;;;;;4.22;1.40;;;20.30;99.90;;;;;;5013138;28;20421;-75
2022/08/09 00:18:09;;;;;;;;;;;20.30;99.90;;;;;;5015089;28;20049;-74
2022/08/09 00:20:38;;;;;;;3.88;1.30;;;20.40;99.90;;;;;;5013388;28;19922;-77
2022/08/09 00:23:16;;;;;;;4.47;1.58;;;20.40;99.90;;;;;;5014286;28;20502;-76
2022/08/09 00:26:05;;;;;;;3.38;1.50;;;20.40;99.90;;;;;;5014538;28;20393;-77
2022/08/09 00:28:32;;;;;;;1.95;1.33;;;20.30;99.90;;;;;;5014412;28;20141;-77
2022/08/09 00:31:01;;;;;;;4.82;1.65;;;20.30;99.90;;;;;;5014517;28;20077;-76
2022/08/09 00:33:49;;;;;;;2.33;1.40;;;20.30;99.90;;;;;;5014236;28;20561;-77
2022/08/09 00:36:17;;;;;;;7.63;1.67;;;20.10;99.90;;;;;;5014249;28;20136;-76
2022/08/09 00:38:44;;;;;;;2.72;2.22;;;20.20;99.90;;;;;;5014144;28;20112;-76
2022/08/09 00:41:19;;;;;;;8.05;4.13;;;20.20;99.90;;;;;;5014015;28;20500;-77
2022/08/09 00:44:06;;;;;;;7.72;2.17;;;20.20;99.90;;;;;;5020481;28;20053;-77
2022/08/09 00:46:52;;;;;;;1.92;1.55;;;20.20;99.90;;;;;;5013717;28;20471;-76
2022/08/09 00:49:33;;;;;;;4.35;1.48;;;20.30;99.90;;;;;;5012793;28;20134;-77
2022/08/09 00:52:04;;;;;;;4.38;1.70;;;20.30;99.90;;;;;;5013901;28;20053;-76
2022/08/09 00:54:43;;;;;;;2.60;1.55;;;20.20;99.90;;;;;;5013319;28;20458;-76
2022/08/09 00:57:11;;;;;;;3.05;1.50;;;20.20;99.90;;;;;;5014209;28;20057;-76
2022/08/09 00:59:41;;;;;;;1.83;1.20;;;20.10;99.90;;;;;;5013550;28;20081;-76
2022/08/09 01:02:20;;;;;;;2.30;1.42;;;20.10;99.90;;;;;;5011583;28;20514;-76
2022/08/09 01:05:11;;;;;;;2.72;1.45;;;20.00;99.90;;;;;;5012968;28;20128;-76
2022/08/09 01:08:08;;;;;;;1.45;1.20;;;20.00;99.90;;;;;;5011479;28;20411;-76
2022/08/09 01:10:50;;;;;;;2.63;1.50;;;20.00;99.90;;;;;;5013595;28;20057;-77
2022/08/09 01:13:39;;;;;;;3.42;1.30;;;20.00;99.90;;;;;;5012764;28;20065;-77
2022/08/09 01:16:39;;;;;;;5.35;3.50;;;20.00;99.90;;;;;;5011811;28;20404;-76
2022/08/09 01:19:34;;;;;;;2.47;1.50;;;19.90;99.90;;;;;;5011766;28;20054;-76
2022/08/09 01:22:23;;;;;;;1.23;1.13;;;19.90;99.90;;;;;;5013538;28;20085;-76
2022/08/09 01:25:17;;;;;;;3.45;1.70;;;19.80;99.90;;;;;;5012077;28;20586;-76
2022/08/09 01:27:53;;;;;;;2.63;1.20;;;19.70;99.90;;;;;;5011001;28;20077;-76
2022/08/09 01:30:26;;;;;;;1.80;1.30;;;19.70;99.90;;;;;;5012075;28;20049;-77
2022/08/09 01:33:06;;;;;;;1.60;1.40;;;19.80;99.90;;;;;;5013446;28;20042;-77
2022/08/09 01:35:44;;;;;;;2.17;1.42;;;19.70;99.90;;;;;;5010985;28;20427;-76
2022/08/09 01:38:16;;;;;;;2.55;1.27;;;19.70;99.90;;;;;;5013268;28;20406;-76
2022/08/09 01:40:49;;;;;;;6.53;1.80;;;19.60;99.90;;;;;;5013077;28;20053;-77
2022/08/09 01:43:31;;;;;;;3.08;1.40;;;19.50;99.90;;;;;;5011289;28;20508;-76
2022/08/09 01:46:19;;;;;;;2.95;1.60;;;19.60;99.90;;;;;;5013069;28;20100;-77
2022/08/09 01:48:58;;;;;;;2.80;1.42;;;19.80;99.90;;;;;;5010104;28;20563;-77
2022/08/09 01:51:44;;;;;;;1.80;1.40;;;19.50;99.90;;;;;;5012732;28;20723;-76
2022/08/09 01:54:24;;;;;;;2.45;1.85;;;19.40;99.90;;;;;;5012844;28;20499;-76
2022/08/09 01:56:54;;;;;;;2.55;1.48;;;19.40;99.90;;;;;;5012802;28;20058;-76
2022/08/09 01:59:23;;;;;;;1.50;1.40;;;19.20;99.90;;;;;;5009479;28;20057;-76
2022/08/09 02:01:53;;;;;;;2.25;1.40;;;19.10;99.90;;;;;;5012599;28;20100;-77
2022/08/09 02:04:28;;;;;;;1.42;1.33;;;19.00;99.90;;;;;;5010235;28;20054;-77
2022/08/09 02:07:14;;;;;;;3.15;1.70;;;18.90;99.90;;;;;;5012917;28;20124;-76
2022/08/09 02:10:09;;;;;;;1.40;1.30;;;18.90;99.90;;;;;;5012455;28;20615;-76
2022/08/09 02:12:37;;;;;;;1.77;1.45;;;19.00;99.90;;;;;;5012413;28;20050;-76
2022/08/09 02:15:07;;;;;;;2.60;1.50;;;18.90;99.90;;;;;;5010973;28;20081;-76
2022/08/09 02:17:38;;;;;;;1.30;1.20;;;18.80;99.90;;;;;;5008995;28;20141;-76
2022/08/09 02:20:28;;;;;;;3.08;1.50;;;18.80;99.90;;;;;;5012332;28;20053;-77
2022/08/09 02:23:26;;;;;;;2.40;1.50;;;18.90;99.90;;;;;;5012291;28;20522;-76
2022/08/09 02:26:07;;;;;;;2.88;1.55;;;18.80;99.90;;;;;;5012215;28;20527;-76
2022/08/09 02:28:54;;;;;;;1.55;1.25;;;18.90;99.90;;;;;;5012144;28;20049;-76
2022/08/09 02:31:29;;;;;;;2.75;1.60;;;18.90;99.90;;;;;;5012188;28;20085;-77
2022/08/09 02:34:03;;;;;;;2.38;1.42;;;18.80;99.90;;;;;;5012592;28;20096;-76
2022/08/09 02:36:42;;;;;;;2.70;1.80;;;18.80;99.90;;;;;;5011694;28;20420;-76
2022/08/09 02:39:16;;;;;;;3.20;1.50;;;18.80;99.90;;;;;;5007750;28;20496;-76
2022/08/09 02:42:04;;;;;;;1.75;1.48;;;18.80;99.90;;;;;;5012211;28;20057;-77
2022/08/09 02:44:39;;;;;;;1.75;1.60;;;18.80;99.90;;;;;;5010771;28;20045;-76
2022/08/09 02:47:10;;;;;;;2.80;2.28;;;18.80;99.90;;;;;;5012169;28;20054;-76
2022/08/09 02:49:51;;;;;;;4.28;1.60;;;18.80;99.90;;;;;;5011322;28;20052;-76
2022/08/09 02:52:35;;;;;;;2.22;2.03;;;18.70;99.90;;;;;;5010629;28;20131;-76
2022/08/09 02:55:03;;;;;;;2.03;1.83;;;18.70;99.90;;;;;;5011842;28;20200;-76
2022/08/09 02:57:48;;;;;;;1.50;1.38;;;18.60;99.90;;;;;;5011719;28;20085;-76
2022/08/09 03:00:37;;;;;;;5.18;1.60;;;18.60;99.90;;;;;;5011033;28;20400;-76
2022/08/09 03:03:25;;;;;;;5.00;1.63;;;18.50;99.90;;;;;;5011843;28;20060;-77
2022/08/09 03:06:13;;;;;;;3.35;1.65;;;18.50;99.90;;;;;;5011623;28;20049;-76
2022/08/09 03:08:45;;;;;;;2.28;1.88;;;18.60;99.90;;;;;;5011674;28;20100;-75
2022/08/09 03:11:19;;;;;;;2.17;1.80;;;18.60;99.90;;;;;;5008784;28;20655;-76
2022/08/09 03:14:07;;;;;;;2.20;1.83;;;18.50;99.90;;;;;;5010979;28;20041;-76
2022/08/09 03:16:36;;;;;;;2.88;1.90;;;18.50;99.90;;;;;;5010980;28;20053;-76
2022/08/09 03:19:11;;;;;;;2.17;1.67;;;18.50;99.90;;;;;;5011234;28;20084;-76
2022/08/09 03:21:43;;;;;;;3.38;1.80;;;18.40;99.90;;;;;;5011020;28;20046;-76
2022/08/09 03:24:17;;;;;;;3.67;1.83;;;18.50;99.90;;;;;;5010543;28;20050;-76
2022/08/09 03:27:08;;;;;;;2.05;1.88;;;18.40;99.90;;;;;;5011385;28;20057;-77
2022/08/09 03:29:38;;;;;;;2.22;1.83;;;18.30;99.90;;;;;;5009293;28;20054;-76
2022/08/09 03:32:24;;;;;;;3.00;1.90;;;18.40;99.90;;;;;;5011289;28;20056;-76
2022/08/09 03:34:52;;;;;;;2.08;1.83;;;18.40;99.90;;;;;;5020401;28;20065;-76
2022/08/09 03:37:20;;;;;;;2.15;1.90;;;18.40;99.90;;;;;;5009035;28;20058;-76
2022/08/09 03:40:07;;;;;;;1.88;1.55;;;18.30;99.90;;;;;;5010855;28;20060;-76
2022/08/09 03:42:38;;;;;;;1.85;1.52;;;18.30;99.90;;;;;;5009806;28;20077;-76
2022/08/09 03:45:09;;;;;;;3.47;1.88;;;18.10;99.90;;;;;;5009589;28;20140;-76
2022/08/09 03:47:36;;;;;;;1.83;1.52;;;18.20;99.90;;;;;;5013394;28;20132;-76
2022/08/09 03:50:09;;;;;;;4.07;2.20;;;18.30;99.90;;;;;;5015003;28;20045;-76
2022/08/09 03:52:39;;;;;;;2.13;1.60;;;18.30;99.90;;;;;;5024384;28;20050;-76
2022/08/09 03:55:09;;;;;;;3.50;2.20;;;18.20;99.90;;;;;;5015033;28;20104;-76
2022/08/09 03:57:40;;;;;;;3.28;2.03;;;18.20;99.90;;;;;;5015240;28;20053;-76
2022/08/09 04:00:23;;;;;;;5.72;2.30;;;18.20;99.90;;;;;;5014226;28;20061;-76
2022/08/09 04:02:53;;;;;;;5.18;2.40;;;18.20;99.90;;;;;;5014899;28;20136;-76
2022/08/09 04:05:23;;;;;;;2.40;1.77;;;18.20;99.90;;;;;;5015305;28;20042;-76
2022/08/09 04:07:53;;;;;;;2.53;2.03;;;18.10;99.90;;;;;;5014777;28;20144;-76
2022/08/09 04:10:24;;;;;;;4.53;2.00;;;18.00;99.90;;;;;;5015375;28;20124;-76
2022/08/09 04:12:57;;;;;;;6.85;1.80;;;18.00;99.90;;;;;;5014168;28;20507;-76
2022/08/09 04:15:29;;;;;;;3.45;1.70;;;18.10;99.90;;;;;;5014849;28;20092;-76
2022/08/09 04:18:17;;;;;;;4.10;1.77;;;18.00;99.90;;;;;;5014344;28;20050;-76
2022/08/09 04:20:46;;;;;;;4.68;1.92;;;17.90;99.90;;;;;;5014699;28;20054;-76
2022/08/09 04:23:14;;;;;;;3.97;2.22;;;17.90;99.90;;;;;;5014385;28;20045;-76
2022/08/09 04:25:44;;;;;;;3.67;2.00;;;17.90;99.90;;;;;;5014509;28;20132;-76
2022/08/09 04:28:22;;;;;;;3.83;2.20;;;17.90;99.90;;;;;;5013786;28;20073;-76
2022/08/09 04:31:06;;;;;;;3.58;1.85;;;18.00;99.90;;;;;;5014014;28;20809;-76
2022/08/09 04:33:37;;;;;;;3.08;2.00;;;18.00;99.90;;;;;;5013305;28;20077;-76
2022/08/09 04:36:24;;;;;;;2.63;1.90;;;17.90;99.90;;;;;;5014051;28;20129;-76
2022/08/09 04:38:53;;;;;;;4.68;2.00;;;17.90;99.90;;;;;;5013957;28;20589;-76
2022/08/09 04:41:21;;;;;;;2.00;1.80;;;17.90;99.90;;;;;;5013942;28;20507;-76
2022/08/09 04:43:51;;;;;;;5.03;2.08;;;17.90;99.90;;;;;;5014298;28;20050;-76
2022/08/09 04:46:35;;;;;;;3.03;1.67;;;17.90;99.90;;;;;;5013864;28;20100;-76
2022/08/09 04:49:21;;;;;;;4.60;2.17;;;17.90;99.90;;;;;;5013493;28;20056;-76
2022/08/09 04:52:08;;;;;;;4.38;1.60;;;17.90;99.90;;;;;;5013680;28;20049;-76
2022/08/09 04:54:35;;;;;;;5.72;1.90;;;17.80;99.90;;;;;;5014066;28;20056;-76
2022/08/09 04:57:02;;;;;;;2.13;1.45;;;17.90;99.90;;;;;;5022081;28;20046;-76
2022/08/09 04:59:29;;;;;;;4.07;1.77;;;17.90;99.90;;;;;;5013543;28;20083;-76
2022/08/09 05:01:56;;;;;;;2.03;1.80;;;17.90;99.90;;;;;;5013677;28;20053;-76
2022/08/09 05:04:23;;;;;;;4.32;1.70;;;17.90;99.90;;;;;;5014010;28;20073;-76
2022/08/09 05:06:57;;;;;;;3.38;1.70;;;18.00;99.90;;;;;;5013756;28;20057;-76
2022/08/09 05:09:23;;;;;;;4.25;1.83;;;18.10;99.90;;;;;;5012401;28;20088;-76
2022/08/09 05:12:09;;;;;;;3.75;1.80;;;18.10;99.90;;;;;;5011769;28;20054;-76
2022/08/09 05:14:38;;;;;;;4.13;1.83;;;18.20;99.90;;;;;;5013275;28;20116;-76
2022/08/09 05:17:07;;;;;;;4.57;2.47;;;18.10;99.90;;;;;;5013717;28;20104;-76
2022/08/09 05:19:53;;;;;;;4.65;2.25;;;18.30;99.90;;;;;;5012931;28;20503;-76
2022/08/09 05:22:24;;;;;;;2.97;1.90;;;18.30;99.90;;;;;;5013507;28;20514;-76
2022/08/09 05:25:11;;;;;;;4.15;1.80;;;18.30;99.90;;;;;;5013545;28;20056;-76
2022/08/09 05:27:41;;;;;;;4.47;1.95;;;18.40;99.90;;;;;;5014817;28;20069;-76
2022/08/09 05:30:14;;;;;;;4.60;2.33;;;18.60;99.90;;;;;;5025459;28;20045;-76
2022/08/09 05:32:46;;;;;;;2.10;1.77;;;18.60;99.90;;;;;;5012990;28;20050;-76
2022/08/09 05:35:19;;;;;;;4.28;2.00;;;18.60;99.90;;;;;;5012446;28;20100;-76
2022/08/09 05:37:48;;;;;;;2.58;1.95;;;18.60;99.90;;;;;;5012765;28;20053;-76
2022/08/09 05:40:16;;;;;;;2.53;1.92;;;18.60;99.90;;;;;;5012821;28;20050;-77
2022/08/09 05:42:44;;;;;;;15.23;7.80;;;18.70;99.90;;;;;;5012901;28;20042;-76
2022/08/09 05:45:11;;;;;;;11.75;5.72;;;18.70;99.90;;;;;;5013184;28;20093;-76
2022/08/09 05:47:41;;;;;;;8.07;4.45;;;18.70;99.90;;;;;;5013196;28;20133;-76
2022/08/09 05:50:18;;;;;;;6.55;3.58;;;18.80;99.90;;;;;;5013015;28;20484;-76
2022/08/09 05:53:00;;;;;;;6.75;3.00;;;18.80;99.90;;;;;;5012836;28;20100;-76
2022/08/09 05:55:27;;;;;;;8.07;4.07;;;18.80;99.90;;;;;;5012597;28;20084;-76
2022/08/09 05:57:57;;;;;;;7.72;4.00;;;18.80;99.90;;;;;;5012639;28;20108;-76
2022/08/09 06:00:29;;;;;;;7.07;3.83;;;18.90;99.90;;;;;;5011247;28;20056;-77
2022/08/09 06:03:00;;;;;;;5.90;4.60;;;18.90;99.90;;;;;;5012555;28;20060;-76
2022/08/09 06:05:28;;;;;;;5.90;3.75;;;18.90;99.90;;;;;;5012716;28;20069;-76
2022/08/09 06:08:16;;;;;;;7.90;4.95;;;18.90;99.90;;;;;;5010901;28;20137;-76
2022/08/09 06:10:50;;;;;;;10.35;4.50;;;19.00;99.90;;;;;;5011587;28;20542;-76
2022/08/09 06:13:17;;;;;;;7.50;3.42;;;18.90;99.90;;;;;;5012657;28;20145;-77
2022/08/09 06:15:50;;;;;;;7.15;3.40;;;19.00;99.90;;;;;;5011824;28;20500;-77
2022/08/09 06:18:21;;;;;;;5.15;2.35;;;19.00;99.90;;;;;;5012505;28;20054;-77
2022/08/09 06:20:52;;;;;;;2.85;2.15;;;18.90;99.90;;;;;;5012745;28;20085;-76
2022/08/09 06:23:24;;;;;;;2.30;1.65;;;19.00;99.90;;;;;;5012459;28;20056;-76
2022/08/09 06:26:10;;;;;;;2.58;1.80;;;19.00;99.90;;;;;;5012215;28;20056;-76
2022/08/09 06:28:37;;;;;;;3.92;2.55;;;19.10;99.90;;;;;;5011745;28;20085;-76
2022/08/09 06:31:08;;;;;;;5.20;2.33;;;19.10;99.90;;;;;;5012314;28;20077;-76
2022/08/09 06:33:35;;;;;;;5.55;2.00;;;19.10;99.90;;;;;;5010563;28;20093;-76
2022/08/09 06:36:08;;;;;;;5.15;1.80;;;19.10;99.90;;;;;;5012251;28;20132;-77
2022/08/09 06:38:39;;;;;;;7.05;1.65;;;19.20;99.90;;;;;;5011535;28;20089;-76
2022/08/09 06:41:16;;;;;;;2.00;1.70;;;19.20;99.90;;;;;;5012122;28;20050;-77
2022/08/09 06:43:46;;;;;;;5.10;1.92;;;19.10;99.90;;;;;;5008856;28;20134;-76
2022/08/09 06:46:14;;;;;;;4.78;2.38;;;19.20;99.90;;;;;;5011840;28;20065;-76
2022/08/09 06:49:00;;;;;;;7.55;2.30;;;19.20;99.90;;;;;;5011764;28;20053;-76
2022/08/09 06:51:27;;;;;;;4.55;1.90;;;19.20;99.90;;;;;;5011706;28;20416;-76
2022/08/09 06:53:54;;;;;;;7.13;2.30;;;19.10;99.90;;;;;;5011961;28;20089;-76
2022/08/09 06:56:26;;;;;;;8.40;1.80;;;19.20;99.90;;;;;;5011893;28;20108;-77
2022/08/09 06:58:57;;;;;;;4.35;1.92;;;19.20;99.90;;;;;;5009101;28;20050;-76
2022/08/09 07:01:44;;;;;;;5.32;1.95;;;19.30;99.90;;;;;;5010724;28;20057;-77
2022/08/09 07:04:25;;;;;;;4.82;2.63;;;19.30;99.90;;;;;;5011923;28;20045;-76
2022/08/09 07:06:53;;;;;;;2.08;1.80;;;19.40;99.90;;;;;;5011493;28;20504;-76
2022/08/09 07:09:26;;;;;;;5.78;2.05;;;19.40;99.90;;;;;;5008946;28;20095;-77
2022/08/09 07:12:13;;;;;;;7.45;1.67;;;19.50;99.90;;;;;;5011633;28;20050;-76
2022/08/09 07:14:44;;;;;;;;;;;19.50;99.90;;;;;;5011568;28;20049;-77
2022/08/09 07:17:17;;;;;;;5.43;1.60;;;19.50;99.90;;;;;;5009685;28;19932;-77
2022/08/09 07:19:44;;;;;;;2.67;1.60;;;19.50;99.90;;;;;;5011414;28;20129;-76
2022/08/09 07:22:17;;;;;;;4.38;1.88;;;19.60;99.90;;;;;;5008848;28;20046;-76
2022/08/09 07:24:53;;;;;;;1.92;1.70;;;19.70;99.90;;;;;;5010852;28;20042;-77
2022/08/09 07:27:20;;;;;;;4.35;1.60;;;19.70;99.90;;;;;;5011610;28;20089;-76
2022/08/09 07:29:59;;;;;;;4.20;1.60;;;19.80;99.90;;;;;;5010834;28;20045;-77
2022/08/09 07:32:27;;;;;;;1.80;1.50;;;19.80;99.90;;;;;;5011110;28;20084;-77
2022/08/09 07:35:04;;;;;;;3.15;1.52;;;19.90;99.90;;;;;;5009938;28;20141;-77
2022/08/09 07:37:42;;;;;;;5.00;1.58;;;19.90;99.90;;;;;;5011363;28;20133;-77
2022/08/09 07:40:14;;;;;;;3.58;1.70;;;19.90;99.90;;;;;;5009727;28;20076;-76
2022/08/09 07:43:02;;;;;;;5.00;1.90;;;20.00;99.90;;;;;;5009973;28;20046;-76
2022/08/09 07:45:40;;;;;;;5.65;1.52;;;20.10;99.90;;;;;;5009665;28;20058;-76
2022/08/09 07:48:11;;;;;;;7.00;1.33;;;20.20;99.90;;;;;;5011044;28;20518;-76
2022/08/09 07:50:58;;;;;;;5.18;1.58;;;20.20;99.90;;;;;;5009715;28;20555;-77
2022/08/09 07:53:45;;;;;;;5.75;1.58;;;20.30;99.90;;;;;;5010810;28;20057;-77
2022/08/09 07:56:32;;;;;;;3.38;1.60;;;20.40;99.90;;;;;;5010801;28;20050;-77
2022/08/09 07:59:00;;;;;;;5.68;1.65;;;20.40;99.90;;;;;;5010926;28;20515;-77
2022/08/09 08:01:27;;;;;;;5.93;1.30;;;20.50;99.90;;;;;;5008376;28;20490;-77
2022/08/09 08:03:58;;;;;;;4.93;1.42;;;20.50;99.90;;;;;;5009365;28;20141;-76
2022/08/09 08:06:25;;;;;;;6.95;1.77;;;20.60;99.90;;;;;;5011124;28;20085;-77
2022/08/09 08:08:58;;;;;;;6.60;1.85;;;20.70;99.90;;;;;;5009108;28;20049;-76
2022/08/09 08:11:31;;;;;;;4.60;1.30;;;20.80;99.90;;;;;;5009373;28;20053;-76
2022/08/09 08:14:17;;;;;;;4.05;1.30;;;20.90;99.90;;;;;;5010739;28;20049;-76
2022/08/09 08:16:46;;;;;;;3.03;1.20;;;21.00;99.90;;;;;;5009584;28;20428;-75
2022/08/09 08:19:33;;;;;;;4.25;1.25;;;21.10;99.90;;;;;;5010698;28;20045;-77
2022/08/09 08:22:00;;;;;;;3.13;1.25;;;21.20;99.90;;;;;;5008887;28;20104;-77
2022/08/09 08:24:28;;;;;;;1.75;1.30;;;21.30;99.90;;;;;;5010739;28;20046;-77
2022/08/09 08:27:06;;;;;;;3.60;1.50;;;21.40;99.90;;;;;;5009340;28;20092;-77
2022/08/09 08:29:43;;;;;;;5.60;1.73;;;21.50;99.90;;;;;;5009976;28;20056;-77
2022/08/09 08:32:16;;;;;;;7.18;1.60;;;21.50;99.90;;;;;;5010679;28;20147;-77
2022/08/09 08:34:55;;;;;;;1.83;1.33;;;21.70;99.90;;;;;;5012381;28;20046;-76
2022/08/09 08:37:27;;;;;;;3.10;1.67;;;21.90;99.90;;;;;;5012236;28;20069;-77
2022/08/09 08:40:14;;;;;;;3.10;1.38;;;21.90;99.90;;;;;;5013597;28;20056;-76
2022/08/09 08:42:42;;;;;;;5.30;1.40;;;22.00;99.90;;;;;;5013827;28;20481;-77
2022/08/09 08:45:15;;;;;;;2.92;1.70;;;22.10;99.90;;;;;;5014361;28;20116;-76
2022/08/09 08:47:43;;;;;;;4.05;1.40;;;22.10;99.90;;;;;;5013033;28;20045;-77
2022/08/09 08:50:14;;;;;;;2.63;1.10;;;22.20;99.90;;;;;;5012605;28;20079;-77
2022/08/09 08:52:44;;;;;;;9.55;1.60;;;22.30;99.90;;;;;;5012794;28;20054;-77
2022/08/09 08:55:26;;;;;;;4.15;1.27;;;22.40;99.90;;;;;;5013981;28;20064;-77
2022/08/09 08:57:54;;;;;;;7.57;2.13;;;22.50;99.90;;;;;;5014106;28;20145;-77
2022/08/09 09:00:26;;;;;;;4.15;1.30;;;22.60;99.90;;;;;;5013755;28;20088;-76
2022/08/09 09:03:00;;;;;;;4.65;1.50;;;22.60;99.90;;;;;;5013849;28;20396;-77
2022/08/09 09:05:38;;;;;;;10.38;1.73;;;22.70;99.90;;;;;;5012904;28;20137;-77
2022/08/09 09:08:27;;;;;;;4.88;1.73;;;22.80;99.90;;;;;;5012979;28;20120;-77
2022/08/09 09:11:01;;;;;;;6.80;1.70;;;22.90;99.90;;;;;;5010195;28;20069;-77
2022/08/09 09:13:37;;;;;;;3.67;1.40;;;23.00;99.90;;;;;;5013881;28;20045;-77
2022/08/09 09:16:21;;;;;;;3.55;1.70;;;23.00;99.90;;;;;;5013378;28;20050;-77
2022/08/09 09:18:58;;;;;;;5.60;1.35;;;23.10;99.90;;;;;;5013443;28;20136;-77
2022/08/09 09:22:01;;;;;;;5.20;1.50;;;23.10;99.90;;;;;;5012914;28;20586;-76
2022/08/09 09:24:39;;;;;;;2.53;1.35;;;23.20;99.90;;;;;;5013400;28;20054;-77
2022/08/09 09:27:12;;;;;;;3.78;1.45;;;23.40;99.90;;;;;;5013655;28;20046;-77
2022/08/09 09:30:09;;;;;;;9.20;1.40;;;23.40;99.90;;;;;;5010130;28;20060;-76
2022/08/09 09:33:05;;;;;;;2.25;1.42;;;23.70;99.90;;;;;;5010805;28;20049;-77
2022/08/09 09:35:57;;;;;;;3.80;1.27;;;23.80;99.90;;;;;;5011038;28;20053;-77
2022/08/09 09:38:45;;;;;;;5.32;1.45;;;23.80;99.90;;;;;;5011263;28;20081;-77
2022/08/09 09:41:28;;;;;;;2.78;1.40;;;23.90;99.90;;;;;;5013215;28;20050;-77
2022/08/09 09:44:06;;;;;;;3.45;1.48;;;24.00;99.90;;;;;;5012621;28;20042;-77
2022/08/09 09:46:44;;;;;;;5.70;1.55;;;24.20;99.90;;;;;;5010393;28;20053;-76
2022/08/09 09:49:22;;;;;;;5.15;1.50;;;24.30;99.90;;;;;;5012721;28;20056;-77
2022/08/09 09:52:10;;;;;;;6.05;1.63;;;24.30;99.90;;;;;;5013017;28;20049;-77
2022/08/09 09:55:08;;;;;;;5.57;1.38;;;24.40;99.90;;;;;;5012748;28;20054;-77
2022/08/09 09:58:00;;;;;;;1.92;1.25;;;24.50;99.90;;;;;;5012480;28;20431;-77
2022/08/09 10:00:54;;;;;;;1.35;1.10;;;24.70;99.90;;;;;;5012687;28;20049;-77
2022/08/09 10:03:45;;;;;;;5.93;1.25;;;24.60;99.90;;;;;;5012489;28;20049;-77
2022/08/09 10:06:26;;;;;;;4.68;1.30;;;24.80;99.90;;;;;;5013088;28;20053;-77
2022/08/09 10:09:01;;;;;;;5.05;1.50;;;24.70;99.90;;;;;;5012411;28;20064;-77
2022/08/09 10:11:30;;;;;;;3.80;1.55;;;24.80;99.90;;;;;;5012529;28;20076;-77
2022/08/09 10:14:21;;;;;;;4.90;1.27;;;25.20;99.90;;;;;;5012264;28;20053;-77
2022/08/09 10:16:56;;;;;;;2.42;1.15;;;25.10;99.90;;;;;;5010505;28;20054;-77
2022/08/09 10:19:37;;;;;;;2.67;1.33;;;25.30;99.90;;;;;;5012162;28;20056;-77
2022/08/09 10:22:05;;;;;;;9.73;1.48;;;25.30;99.90;;;;;;5012274;28;20054;-76
2022/08/09 10:24:34;;;;;;;3.92;1.60;;;25.30;99.90;;;;;;5008676;28;20133;-76
2022/08/09 10:27:02;;;;;;;2.55;1.30;;;25.60;99.90;;;;;;5012223;28;20057;-77
2022/08/09 10:29:36;;;;;;;5.38;1.50;;;25.60;99.90;;;;;;5012073;28;20049;-77
2022/08/09 10:32:24;;;;;;;4.20;1.48;;;25.80;99.90;;;;;;5012019;28;20496;-77
2022/08/09 10:35:09;;;;;;;3.00;1.10;;;26.00;99.90;;;;;;5012096;28;20519;-76
2022/08/09 10:37:38;;;;;;;5.80;1.48;;;26.00;99.90;;;;;;5012112;28;20168;-77
2022/08/09 10:40:09;;;;;;;11.20;2.40;;;25.90;99.90;;;;;;5011576;28;20046;-75
2022/08/09 10:42:56;;;;;;;5.65;1.27;;;26.00;99.90;;;;;;5011992;28;20061;-76
2022/08/09 10:45:23;;;;;;;3.75;1.40;;;26.00;99.90;;;;;;5012074;28;20084;-76
2022/08/09 10:48:09;;;;;;;4.82;1.70;;;26.10;99.90;;;;;;5011883;28;20046;-75
2022/08/09 10:51:16;;;;;;;3.63;1.10;;;26.20;99.90;;;;;;5010489;28;20056;-75
2022/08/09 10:54:00;;;;;;;6.63;1.20;;;26.10;99.90;;;;;;5011199;28;20050;-77
2022/08/09 10:56:32;;;;;;;2.15;1.23;;;26.20;99.90;;;;;;5011341;28;20069;-75
2022/08/09 10:59:23;;;;;;;4.68;1.23;;;26.30;99.90;;;;;;5011581;28;20192;-75
2022/08/09 11:01:57;;;;;;;7.00;1.25;;;26.40;99.90;;;;;;5011803;28;20104;-75
2022/08/09 11:05:16;;;;;;;2.17;1.33;;;26.70;99.90;;;;;;5011433;28;20517;-75
2022/08/09 11:07:55;;;;;;;4.15;1.30;;;26.70;99.90;;;;;;5011791;28;20081;-76
2022/08/09 11:10:40;;;;;;;3.85;1.50;;;26.70;99.90;;;;;;5009105;28;20125;-76
2022/08/09 11:13:20;;;;;;;3.17;1.00;;;26.70;99.90;;;;;;5010446;28;20504;-75
2022/08/09 11:16:31;;;;;;;3.78;1.10;;;26.70;99.90;;;;;;5010776;28;20056;-75
2022/08/09 11:19:01;;;;;;;1.83;0.90;;;26.80;99.90;;;;;;5010931;28;20132;-75
2022/08/09 11:21:52;;;;;;;4.65;1.10;;;26.80;99.90;;;;;;5011593;28;20065;-76
2022/08/09 11:25:03;;;;;;;4.22;1.10;;;27.00;99.90;;;;;;5011014;28;20507;-75
2022/08/09 11:27:41;;;;;;;3.03;1.10;;;27.20;99.90;;;;;;4986029;28;20077;-76
2022/08/09 11:30:28;;;;;;;3.25;1.40;;;27.40;99.90;;;;;;5010634;28;20064;-75
2022/08/09 11:33:05;;;;;;;2.30;1.20;;;27.40;99.90;;;;;;5011481;28;20128;-74
2022/08/09 11:35:57;;;;;;;3.55;1.13;;;27.40;99.90;;;;;;5011370;28;20081;-75
2022/08/09 11:38:32;;;;;;;1.67;1.08;;;27.50;99.90;;;;;;5009388;28;20130;-75
2022/08/09 11:41:27;;;;;;;5.25;1.80;;;27.30;99.90;;;;;;5011205;28;20054;-75
2022/08/09 11:44:06;;;;;;;3.40;1.50;;;27.40;99.90;;;;;;5010216;28;20405;-75
2022/08/09 11:46:54;;;;;;;3.13;1.25;;;27.40;99.90;;;;;;5008835;28;20046;-74
2022/08/09 11:49:57;;;;;;;5.88;1.30;;;27.40;99.90;;;;;;5009397;28;20056;-75
2022/08/09 11:52:58;;;;;;;7.45;0.93;;;27.90;99.90;;;;;;5010509;28;20053;-75
2022/08/09 11:55:46;;;;;;;1.48;1.10;;;28.00;99.90;;;;;;5009482;28;20049;-77
2022/08/09 11:58:19;;;;;;;3.45;0.80;;;28.10;99.90;;;;;;5009899;28;20042;-75
2022/08/09 12:01:05;;;;;;;4.23;1.57;;;28.20;99.90;;;;;;5011477;28;20108;-74
2022/08/09 12:03:46;;;;;;;4.25;1.48;;;28.20;99.90;;;;;;5012394;28;20058;-75
2022/08/09 12:06:25;;;;;;;3.83;1.30;;;28.10;99.90;;;;;;5010887;28;20046;-77
2022/08/09 12:09:04;;;;;;;4.47;1.27;;;28.30;99.90;;;;;;5011667;28;20479;-74
2022/08/09 12:11:31;;;;;;;5.63;1.42;;;28.20;99.90;;;;;;5014786;28;20570;-75
2022/08/09 12:14:10;;;;;;;3.27;1.30;;;28.40;99.90;;;;;;5013743;28;20661;-75
2022/08/09 12:16:57;;;;;;;9.65;1.25;;;28.40;99.90;;;;;;5014396;28;20396;-75
2022/08/09 12:19:29;;;;;;;3.65;1.00;;;28.30;99.90;;;;;;5014804;28;20053;-77
2022/08/09 12:22:00;;;;;;;1.27;0.98;;;28.30;97.20;;;;;;5014742;28;20060;-77
2022/08/09 12:24:29;;;;;;;2.45;0.93;;;28.50;97.80;;;;;;5014552;28;20136;-75
2022/08/09 12:26:58;;;;;;;1.48;0.90;;;28.30;99.90;;;;;;5014701;28;20050;-75
2022/08/09 12:29:55;;;;;;;0.75;0.70;;;28.30;96.70;;;;;;5013968;28;20502;-75
2022/08/09 12:32:42;;;;;;;2.40;0.80;;;28.30;96.20;;;;;;5013743;28;20403;-77
2022/08/09 12:35:10;;;;;;;5.43;1.30;;;28.30;96.20;;;;;;5014296;28;20131;-75
2022/08/09 12:37:44;;;;;;;1.55;0.80;;;28.40;95.50;;;;;;5013600;28;20057;-76
2022/08/09 12:40:19;;;;;;;1.85;0.90;;;28.50;95.20;;;;;;5014222;28;20053;-75
2022/08/09 12:42:49;;;;;;;3.65;1.05;;;28.40;94.60;;;;;;5014187;28;20140;-75
2022/08/09 12:45:17;;;;;;;2.50;0.65;;;28.50;95.30;;;;;;5014237;28;20069;-76
2022/08/09 12:48:08;;;;;;;3.55;0.77;;;28.50;94.60;;;;;;5014042;28;20050;-76
2022/08/09 12:50:56;;;;;;;1.95;0.88;;;28.60;95.90;;;;;;5014082;28;20053;-75
2022/08/09 12:53:29;;;;;;;5.32;1.05;;;28.70;96.60;;;;;;5013932;28;20500;-76
2022/08/09 12:56:09;;;;;;;7.30;1.13;;;28.60;94.50;;;;;;5013345;28;20046;-75
2022/08/09 12:59:03;;;;;;;2.08;0.82;;;28.60;94.60;;;;;;5011657;28;20516;-75
2022/08/09 13:01:30;;;;;;;2.15;0.80;;;28.80;94.10;;;;;;5013705;28;20534;-76
2022/08/09 13:04:00;;;;;;;1.77;0.88;;;28.90;94.10;;;;;;5012917;28;20052;-77
2022/08/09 13:06:29;;;;;;;;;;;29.00;93.60;;;;;;5012352;28;20573;-75
2022/08/09 13:09:17;;;;;;;0.98;0.77;;;28.90;93.40;;;;;;5012632;28;19926;-75
2022/08/09 13:11:46;;;;;;;4.45;0.90;;;28.90;93.40;;;;;;5013583;28;20533;-75
2022/08/09 13:14:17;;;;;;;1.40;0.90;;;28.90;93.00;;;;;;5011093;28;20140;-75
2022/08/09 13:17:12;;;;;;;2.78;0.90;;;29.00;93.30;;;;;;5013614;28;20065;-75
2022/08/09 13:19:45;;;;;;;2.72;0.50;;;29.20;92.80;;;;;;5011002;28;20141;-75
2022/08/09 13:22:31;;;;;;;;;;;29.10;93.10;;;;;;5013856;28;20065;-75
2022/08/09 13:25:11;;;;;;;1.05;0.70;;;29.10;92.70;;;;;;5013629;28;19925;-75
2022/08/09 13:27:41;;;;;;;3.80;0.90;;;29.00;92.40;;;;;;5013497;28;20057;-75
2022/08/09 13:30:22;;;;;;;1.38;0.70;;;29.00;92.00;;;;;;5012030;28;20057;-76
2022/08/09 13:33:11;;;;;;;4.15;0.77;;;29.10;91.80;;;;;;5012585;28;20064;-77
2022/08/09 13:35:47;;;;;;;4.97;0.98;;;29.10;91.80;;;;;;5010975;28;20049;-77
2022/08/09 13:38:35;;;;;;;3.15;0.85;;;29.00;91.70;;;;;;5012694;28;20050;-77
2022/08/09 13:41:22;;;;;;;2.13;0.80;;;29.10;91.80;;;;;;5013074;28;20058;-77
2022/08/09 13:44:09;;;;;;;3.13;0.90;;;29.20;91.30;;;;;;5011928;28;20517;-76